sensor_id;sensor_type;location;lat;lon;timestamp;temperature;humidity
9658;DHT22;4867;48.112;11.622;2023-05-20T00:01:43;13.40;99.90
9658;DHT22;4867;48.112;11.622;2023-05-20T00:04:10;13.30;99.90
9658;DHT22;4867;48.112;11.622;2023-05-20T00:06:38;13.30;99.90
9658;DHT22;4867;48.112;11.622;2023-05-20T00:09:13;13.30;99.90
9658;DHT22;4867;48.112;11.622;2023-05-20T00:11:42;13.30;99.90
9658;DHT22;4867;48.112;11.622;2023-05-20T00:14:09;13.20;99.90
9658;DHT22;4867;48.112;11.622;2023-05-20T00:16:36;13.20;99.90
9658;DHT22;4867;48.112;11.622;2023-05-20T00:19:04;13.30;99.90
9658;DHT22;4867;48.112;11.622;2023-05-20T00:21:31;13.30;99.90
9658;DHT22;4867;48.112;11.622;2023-05-20T00:23:59;13.20;99.90
9658;DHT22;4867;48.112;11.622;2023-05-20T00:26:28;13.30;99.90
9658;DHT22;4867;48.112;11.622;2023-05-20T00:28:56;13.30;99.90
9658;DHT22;4867;48.112;11.622;2023-05-20T00:31:23;13.20;99.90
9658;DHT22;4867;48.112;11.622;2023-05-20T00:33:51;13.30;99.90
9658;DHT22;4867;48.112;11.622;2023-05-20T00:36:18;13.20;99.90
9658;DHT22;4867;48.112;11.622;2023-05-20T00:38:46;13.20;99.90
9658;DHT22;4867;48.112;11.622;2023-05-20T00:41:14;13.10;99.90
9658;DHT22;4867;48.112;11.622;2023-05-20T00:43:41;13.10;99.90
9658;DHT22;4867;48.112;11.622;2023-05-20T00:46:09;13.10;99.90
9658;DHT22;4867;48.112;11.622;2023-05-20T00:48:41;13.10;99.90
9658;DHT22;4867;48.112;11.622;2023-05-20T00:51:10;13.10;99.90
9658;DHT22;4867;48.112;11.622;2023-05-20T00:53:39;13.10;99.90
9658;DHT22;4867;48.112;11.622;2023-05-20T00:56:07;13.10;99.90
9658;DHT22;4867;48.112;11.622;2023-05-20T00:58:36;13.10;99.90
9658;DHT22;4867;48.112;11.622;2023-05-20T01:01:04;13.10;99.90
9658;DHT22;4867;48.112;11.622;2023-05-20T01:03:33;13.00;99.90
9658;DHT22;4867;48.112;11.622;2023-05-20T01:06:01;13.10;99.90
9658;DHT22;4867;48.112;11.622;2023-05-20T01:08:29;13.00;99.90
9658;DHT22;4867;48.112;11.622;2023-05-20T01:11:13;13.10;99.90
9658;DHT22;4867;48.112;11.622;2023-05-20T01:13:45;13.00;99.90
9658;DHT22;4867;48.112;11.622;2023-05-20T01:16:17;13.00;99.90
9658;DHT22;4867;48.112;11.622;2023-05-20T01:18:46;12.90;99.90
9658;DHT22;4867;48.112;11.622;2023-05-20T01:21:16;13.00;99.90
9658;DHT22;4867;48.112;11.622;2023-05-20T01:23:43;13.00;99.90
9658;DHT22;4867;48.112;11.622;2023-05-20T01:26:11;13.00;99.90
9658;DHT22;4867;48.112;11.622;2023-05-20T01:28:40;13.00;99.90
9658;DHT22;4867;48.112;11.622;2023-05-20T01:31:19;12.90;99.90
9658;DHT22;4867;48.112;11.622;2023-05-20T01:33:53;12.90;99.90
9658;DHT22;4867;48.112;11.622;2023-05-20T01:36:21;12.90;99.90
9658;DHT22;4867;48.112;11.622;2023-05-20T01:38:50;12.90;99.90
9658;DHT22;4867;48.112;11.622;2023-05-20T01:41:18;12.90;99.90
9658;DHT22;4867;48.112;11.622;2023-05-20T01:43:45;12.90;99.90
9658;DHT22;4867;48.112;11.622;2023-05-20T01:46:14;12.90;99.90
9658;DHT22;4867;48.112;11.622;2023-05-20T01:48:41;12.80;99.90
9658;DHT22;4867;48.112;11.622;2023-05-20T01:51:09;12.80;99.90
9658;DHT22;4867;48.112;11.622;2023-05-20T01:53:36;12.90;99.90
9658;DHT22;4867;48.112;11.622;2023-05-20T01:56:04;12.80;99.90
9658;DHT22;4867;48.112;11.622;2023-05-20T01:58:32;12.90;99.90
9658;DHT22;4867;48.112;11.622;2023-05-20T02:00:59;12.90;99.90
9658;DHT22;4867;48.112;11.622;2023-05-20T02:03:27;12.80;99.90
9658;DHT22;4867;48.112;11.622;2023-05-20T02:05:55;12.90;99.90
9658;DHT22;4867;48.112;11.622;2023-05-20T02:08:22;12.90;99.90
9658;DHT22;4867;48.112;11.622;2023-05-20T02:10:49;12.90;99.90
9658;DHT22;4867;48.112;11.622;2023-05-20T02:13:17;12.90;99.90
9658;DHT22;4867;48.112;11.622;2023-05-20T02:15:44;12.80;99.90
9658;DHT22;4867;48.112;11.622;2023-05-20T02:18:11;12.90;99.90
9658;DHT22;4867;48.112;11.622;2023-05-20T02:20:40;12.80;99.90
9658;DHT22;4867;48.112;11.622;2023-05-20T02:23:08;12.80;99.90
9658;DHT22;4867;48.112;11.622;2023-05-20T02:25:36;12.80;99.90
9658;DHT22;4867;48.112;11.622;2023-05-20T02:28:03;12.90;99.90
9658;DHT22;4867;48.112;11.622;2023-05-20T02:30:32;12.70;99.90
9658;DHT22;4867;48.112;11.622;2023-05-20T02:32:59;12.70;99.90
9658;DHT22;4867;48.112;11.622;2023-05-20T02:35:26;12.80;99.90
9658;DHT22;4867;48.112;11.622;2023-05-20T02:37:53;12.80;99.90
9658;DHT22;4867;48.112;11.622;2023-05-20T02:40:21;12.80;99.90
9658;DHT22;4867;48.112;11.622;2023-05-20T02:42:48;12.80;99.90
9658;DHT22;4867;48.112;11.622;2023-05-20T02:45:16;12.80;99.90
9658;DHT22;4867;48.112;11.622;2023-05-20T02:47:44;12.80;99.90
9658;DHT22;4867;48.112;11.622;2023-05-20T02:50:12;12.80;99.90
9658;DHT22;4867;48.112;11.622;2023-05-20T02:52:39;12.80;99.90
9658;DHT22;4867;48.112;11.622;2023-05-20T02:55:08;12.80;99.90
9658;DHT22;4867;48.112;11.622;2023-05-20T02:57:36;12.80;99.90
9658;DHT22;4867;48.112;11.622;2023-05-20T03:00:07;12.80;99.90
9658;DHT22;4867;48.112;11.622;2023-05-20T03:02:38;12.70;99.90
9658;DHT22;4867;48.112;11.622;2023-05-20T03:05:06;12.70;99.90
9658;DHT22;4867;48.112;11.622;2023-05-20T03:07:36;12.70;99.90
9658;DHT22;4867;48.112;11.622;2023-05-20T03:10:06;12.70;99.90
9658;DHT22;4867;48.112;11.622;2023-05-20T03:12:33;12.70;99.90
9658;DHT22;4867;48.112;11.622;2023-05-20T03:15:01;12.70;99.90
9658;DHT22;4867;48.112;11.622;2023-05-20T03:17:28;12.70;99.90
9658;DHT22;4867;48.112;11.622;2023-05-20T03:19:56;12.70;99.90
9658;DHT22;4867;48.112;11.622;2023-05-20T03:22:24;12.70;99.90
9658;DHT22;4867;48.112;11.622;2023-05-20T03:24:51;12.70;99.90
9658;DHT22;4867;48.112;11.622;2023-05-20T03:27:19;12.70;99.90
9658;DHT22;4867;48.112;11.622;2023-05-20T03:29:47;12.60;99.90
9658;DHT22;4867;48.112;11.622;2023-05-20T03:32:15;12.70;99.90
9658;DHT22;4867;48.112;11.622;2023-05-20T03:34:42;12.70;99.90
9658;DHT22;4867;48.112;11.622;2023-05-20T03:37:10;12.70;99.90
9658;DHT22;4867;48.112;11.622;2023-05-20T03:39:37;12.70;99.90
9658;DHT22;4867;48.112;11.622;2023-05-20T03:42:05;12.70;99.90
9658;DHT22;4867;48.112;11.622;2023-05-20T03:44:33;12.70;99.90
9658;DHT22;4867;48.112;11.622;2023-05-20T03:47:01;12.70;99.90
9658;DHT22;4867;48.112;11.622;2023-05-20T03:49:29;12.70;99.90
9658;DHT22;4867;48.112;11.622;2023-05-20T03:51:57;12.80;99.90
9658;DHT22;4867;48.112;11.622;2023-05-20T03:54:24;12.80;99.90
9658;DHT22;4867;48.112;11.622;2023-05-20T03:56:52;12.80;99.90
9658;DHT22;4867;48.112;11.622;2023-05-20T03:59:19;12.80;99.90
9658;DHT22;4867;48.112;11.622;2023-05-20T04:01:48;12.80;99.90
9658;DHT22;4867;48.112;11.622;2023-05-20T04:04:15;12.80;99.90
9658;DHT22;4867;48.112;11.622;2023-05-20T04:06:43;12.80;99.90
9658;DHT22;4867;48.112;11.622;2023-05-20T04:09:10;12.80;99.90
9658;DHT22;4867;48.112;11.622;2023-05-20T04:11:38;12.80;99.90
9658;DHT22;4867;48.112;11.622;2023-05-20T04:14:05;12.80;99.90
9658;DHT22;4867;48.112;11.622;2023-05-20T04:16:32;12.70;99.90
9658;DHT22;4867;48.112;11.622;2023-05-20T04:19:00;12.60;99.90
9658;DHT22;4867;48.112;11.622;2023-05-20T04:21:28;12.50;99.90
9658;DHT22;4867;48.112;11.622;2023-05-20T04:23:56;12.50;99.90
9658;DHT22;4867;48.112;11.622;2023-05-20T04:26:23;12.50;99.90
9658;DHT22;4867;48.112;11.622;2023-05-20T04:28:51;12.50;99.90
9658;DHT22;4867;48.112;11.622;2023-05-20T04:31:20;12.50;99.90
9658;DHT22;4867;48.112;11.622;2023-05-20T04:33:53;12.50;99.90
9658;DHT22;4867;48.112;11.622;2023-05-20T04:36:22;12.50;99.90
9658;DHT22;4867;48.112;11.622;2023-05-20T04:38:55;12.60;99.90
9658;DHT22;4867;48.112;11.622;2023-05-20T04:41:22;12.60;99.90
9658;DHT22;4867;48.112;11.622;2023-05-20T04:43:50;12.50;99.90
9658;DHT22;4867;48.112;11.622;2023-05-20T04:46:17;12.60;99.90
9658;DHT22;4867;48.112;11.622;2023-05-20T04:48:44;12.60;99.90
9658;DHT22;4867;48.112;11.622;2023-05-20T04:51:14;12.70;99.90
9658;DHT22;4867;48.112;11.622;2023-05-20T04:53:42;12.70;99.90
9658;DHT22;4867;48.112;11.622;2023-05-20T04:56:12;12.70;99.90
9658;DHT22;4867;48.112;11.622;2023-05-20T04:58:39;12.60;99.90
9658;DHT22;4867;48.112;11.622;2023-05-20T05:01:07;12.60;99.90
9658;DHT22;4867;48.112;11.622;2023-05-20T05:03:35;12.50;99.90
9658;DHT22;4867;48.112;11.622;2023-05-20T05:06:03;12.50;99.90
9658;DHT22;4867;48.112;11.622;2023-05-20T05:08:31;12.50;99.90
9658;DHT22;4867;48.112;11.622;2023-05-20T05:10:59;12.40;99.90
9658;DHT22;4867;48.112;11.622;2023-05-20T05:13:26;12.50;99.90
9658;DHT22;4867;48.112;11.622;2023-05-20T05:16:01;12.50;99.90
9658;DHT22;4867;48.112;11.622;2023-05-20T05:18:30;12.50;99.90
9658;DHT22;4867;48.112;11.622;2023-05-20T05:21:02;12.60;99.90
9658;DHT22;4867;48.112;11.622;2023-05-20T05:23:30;12.60;99.90
9658;DHT22;4867;48.112;11.622;2023-05-20T05:25:58;12.60;99.90
9658;DHT22;4867;48.112;11.622;2023-05-20T05:28:26;12.60;99.90
9658;DHT22;4867;48.112;11.622;2023-05-20T05:30:54;12.60;99.90
9658;DHT22;4867;48.112;11.622;2023-05-20T05:33:22;12.70;99.90
9658;DHT22;4867;48.112;11.622;2023-05-20T05:35:50;12.80;99.90
9658;DHT22;4867;48.112;11.622;2023-05-20T05:38:17;12.80;99.90
9658;DHT22;4867;48.112;11.622;2023-05-20T05:40:46;12.90;99.90
9658;DHT22;4867;48.112;11.622;2023-05-20T05:43:14;12.90;99.90
9658;DHT22;4867;48.112;11.622;2023-05-20T05:45:43;13.00;99.90
9658;DHT22;4867;48.112;11.622;2023-05-20T05:48:11;13.10;99.90
9658;DHT22;4867;48.112;11.622;2023-05-20T05:50:38;13.20;99.90
9658;DHT22;4867;48.112;11.622;2023-05-20T05:53:05;13.20;99.90
9658;DHT22;4867;48.112;11.622;2023-05-20T05:55:35;13.20;99.90
9658;DHT22;4867;48.112;11.622;2023-05-20T05:58:02;13.30;99.90
9658;DHT22;4867;48.112;11.622;2023-05-20T06:00:30;13.40;99.90
9658;DHT22;4867;48.112;11.622;2023-05-20T06:02:58;13.40;99.90
9658;DHT22;4867;48.112;11.622;2023-05-20T06:05:32;13.40;99.90
9658;DHT22;4867;48.112;11.622;2023-05-20T06:08:00;13.40;99.90
9658;DHT22;4867;48.112;11.622;2023-05-20T06:10:29;13.30;99.90
9658;DHT22;4867;48.112;11.622;2023-05-20T06:12:57;13.40;99.90
9658;DHT22;4867;48.112;11.622;2023-05-20T06:15:25;13.40;99.90
9658;DHT22;4867;48.112;11.622;2023-05-20T06:17:53;13.50;99.90
9658;DHT22;4867;48.112;11.622;2023-05-20T06:20:20;13.60;99.90
9658;DHT22;4867;48.112;11.622;2023-05-20T06:22:48;13.70;99.90
9658;DHT22;4867;48.112;11.622;2023-05-20T06:25:15;13.80;99.90
9658;DHT22;4867;48.112;11.622;2023-05-20T06:27:43;13.80;99.90
9658;DHT22;4867;48.112;11.622;2023-05-20T06:30:14;13.90;99.90
9658;DHT22;4867;48.112;11.622;2023-05-20T06:32:42;14.00;99.90
9658;DHT22;4867;48.112;11.622;2023-05-20T06:35:10;14.10;99.90
9658;DHT22;4867;48.112;11.622;2023-05-20T06:37:38;14.20;99.90
9658;DHT22;4867;48.112;11.622;2023-05-20T06:40:06;14.30;99.90
9658;DHT22;4867;48.112;11.622;2023-05-20T06:42:35;14.30;99.90
9658;DHT22;4867;48.112;11.622;2023-05-20T06:45:03;14.40;99.90
9658;DHT22;4867;48.112;11.622;2023-05-20T06:47:37;14.40;99.90
9658;DHT22;4867;48.112;11.622;2023-05-20T06:50:05;14.40;99.90
9658;DHT22;4867;48.112;11.622;2023-05-20T06:52:32;14.30;99.90
9658;DHT22;4867;48.112;11.622;2023-05-20T06:54:59;14.30;99.90
9658;DHT22;4867;48.112;11.622;2023-05-20T06:57:27;14.20;99.90
9658;DHT22;4867;48.112;11.622;2023-05-20T06:59:54;14.30;99.90
9658;DHT22;4867;48.112;11.622;2023-05-20T07:02:24;14.40;99.90
9658;DHT22;4867;48.112;11.622;2023-05-20T07:04:52;14.40;99.90
9658;DHT22;4867;48.112;11.622;2023-05-20T07:07:19;14.40;99.90
9658;DHT22;4867;48.112;11.622;2023-05-20T07:09:47;14.50;99.90
9658;DHT22;4867;48.112;11.622;2023-05-20T07:12:14;14.60;99.90
9658;DHT22;4867;48.112;11.622;2023-05-20T07:14:42;14.60;99.90
9658;DHT22;4867;48.112;11.622;2023-05-20T07:17:10;14.60;99.90
9658;DHT22;4867;48.112;11.622;2023-05-20T07:19:38;14.50;99.90
9658;DHT22;4867;48.112;11.622;2023-05-20T07:22:05;14.50;99.90
9658;DHT22;4867;48.112;11.622;2023-05-20T07:24:35;14.50;99.90
9658;DHT22;4867;48.112;11.622;2023-05-20T07:27:04;14.50;99.90
9658;DHT22;4867;48.112;11.622;2023-05-20T07:29:31;14.60;99.90
9658;DHT22;4867;48.112;11.622;2023-05-20T07:31:59;14.70;99.90
9658;DHT22;4867;48.112;11.622;2023-05-20T07:34:26;14.80;99.90
9658;DHT22;4867;48.112;11.622;2023-05-20T07:36:54;15.00;99.90
9658;DHT22;4867;48.112;11.622;2023-05-20T07:39:21;15.20;99.90
9658;DHT22;4867;48.112;11.622;2023-05-20T07:41:49;15.50;99.90
9658;DHT22;4867;48.112;11.622;2023-05-20T07:44:17;15.70;99.90
9658;DHT22;4867;48.112;11.622;2023-05-20T07:46:48;16.00;99.90
9658;DHT22;4867;48.112;11.622;2023-05-20T07:49:15;16.10;99.90
9658;DHT22;4867;48.112;11.622;2023-05-20T07:51:44;16.20;99.90
9658;DHT22;4867;48.112;11.622;2023-05-20T07:54:14;16.20;99.90
9658;DHT22;4867;48.112;11.622;2023-05-20T07:56:44;16.30;99.90
9658;DHT22;4867;48.112;11.622;2023-05-20T07:59:13;16.30;99.90
9658;DHT22;4867;48.112;11.622;2023-05-20T08:01:43;16.50;99.90
9658;DHT22;4867;48.112;11.622;2023-05-20T08:04:13;16.70;99.90
9658;DHT22;4867;48.112;11.622;2023-05-20T08:06:40;16.90;99.90
9658;DHT22;4867;48.112;11.622;2023-05-20T08:09:15;17.00;99.90
9658;DHT22;4867;48.112;11.622;2023-05-20T08:11:47;17.40;99.90
9658;DHT22;4867;48.112;11.622;2023-05-20T08:14:14;17.50;99.90
9658;DHT22;4867;48.112;11.622;2023-05-20T08:16:44;17.30;99.90
9658;DHT22;4867;48.112;11.622;2023-05-20T08:19:11;17.20;99.90
9658;DHT22;4867;48.112;11.622;2023-05-20T08:21:38;17.30;99.90
9658;DHT22;4867;48.112;11.622;2023-05-20T08:24:06;17.40;99.90
9658;DHT22;4867;48.112;11.622;2023-05-20T08:26:35;17.40;99.90
9658;DHT22;4867;48.112;11.622;2023-05-20T08:29:02;17.40;99.90
9658;DHT22;4867;48.112;11.622;2023-05-20T08:31:29;17.50;99.90
9658;DHT22;4867;48.112;11.622;2023-05-20T08:33:58;17.50;99.90
9658;DHT22;4867;48.112;11.622;2023-05-20T08:36:27;17.60;99.90
9658;DHT22;4867;48.112;11.622;2023-05-20T08:38:54;17.70;99.90
9658;DHT22;4867;48.112;11.622;2023-05-20T08:41:22;17.80;99.90
9658;DHT22;4867;48.112;11.622;2023-05-20T08:43:51;18.00;99.90
9658;DHT22;4867;48.112;11.622;2023-05-20T08:46:20;18.00;99.90
9658;DHT22;4867;48.112;11.622;2023-05-20T08:48:49;18.00;99.90
9658;DHT22;4867;48.112;11.622;2023-05-20T08:51:19;18.00;99.90
9658;DHT22;4867;48.112;11.622;2023-05-20T08:53:50;18.10;99.90
9658;DHT22;4867;48.112;11.622;2023-05-20T08:56:18;18.20;99.90
9658;DHT22;4867;48.112;11.622;2023-05-20T08:58:45;18.30;99.90
9658;DHT22;4867;48.112;11.622;2023-05-20T09:01:13;18.50;99.90
9658;DHT22;4867;48.112;11.622;2023-05-20T09:03:40;18.70;99.90
9658;DHT22;4867;48.112;11.622;2023-05-20T09:06:08;18.70;99.90
9658;DHT22;4867;48.112;11.622;2023-05-20T09:08:35;18.90;99.90
9658;DHT22;4867;48.112;11.622;2023-05-20T09:11:03;18.90;99.90
9658;DHT22;4867;48.112;11.622;2023-05-20T09:13:30;19.00;99.90
9658;DHT22;4867;48.112;11.622;2023-05-20T09:16:01;19.10;99.90
9658;DHT22;4867;48.112;11.622;2023-05-20T09:18:29;19.30;99.90
9658;DHT22;4867;48.112;11.622;2023-05-20T09:20:57;19.50;99.90
9658;DHT22;4867;48.112;11.622;2023-05-20T09:23:24;19.70;99.90
9658;DHT22;4867;48.112;11.622;2023-05-20T09:25:52;19.90;99.90
9658;DHT22;4867;48.112;11.622;2023-05-20T09:28:22;20.00;99.90
9658;DHT22;4867;48.112;11.622;2023-05-20T09:30:59;20.30;99.90
9658;DHT22;4867;48.112;11.622;2023-05-20T09:33:30;20.50;99.90
9658;DHT22;4867;48.112;11.622;2023-05-20T09:36:07;20.60;99.90
9658;DHT22;4867;48.112;11.622;2023-05-20T09:38:38;20.70;99.90
9658;DHT22;4867;48.112;11.622;2023-05-20T09:41:10;20.70;99.90
9658;DHT22;4867;48.112;11.622;2023-05-20T09:43:39;20.70;99.90
9658;DHT22;4867;48.112;11.622;2023-05-20T09:46:07;20.80;99.90
9658;DHT22;4867;48.112;11.622;2023-05-20T09:48:35;20.90;99.90
9658;DHT22;4867;48.112;11.622;2023-05-20T09:51:06;20.90;99.90
9658;DHT22;4867;48.112;11.622;2023-05-20T09:53:35;21.00;99.90
9658;DHT22;4867;48.112;11.622;2023-05-20T09:56:02;21.00;99.90
9658;DHT22;4867;48.112;11.622;2023-05-20T09:58:31;20.90;99.90
9658;DHT22;4867;48.112;11.622;2023-05-20T10:00:59;20.80;99.90
9658;DHT22;4867;48.112;11.622;2023-05-20T10:03:27;20.70;99.90
9658;DHT22;4867;48.112;11.622;2023-05-20T10:06:27;20.50;99.90
9658;DHT22;4867;48.112;11.622;2023-05-20T10:12:22;20.60;99.90
9658;DHT22;4867;48.112;11.622;2023-05-20T10:15:21;20.60;99.90
9658;DHT22;4867;48.112;11.622;2023-05-20T10:20:25;21.10;99.90
9658;DHT22;4867;48.112;11.622;2023-05-20T10:22:56;21.20;99.90
9658;DHT22;4867;48.112;11.622;2023-05-20T10:25:26;21.40;99.90
9658;DHT22;4867;48.112;11.622;2023-05-20T10:28:06;21.70;99.90
9658;DHT22;4867;48.112;11.622;2023-05-20T10:30:34;22.10;99.90
9658;DHT22;4867;48.112;11.622;2023-05-20T10:33:03;22.30;99.90
9658;DHT22;4867;48.112;11.622;2023-05-20T10:35:31;22.40;99.90
9658;DHT22;4867;48.112;11.622;2023-05-20T10:38:09;22.60;99.90
9658;DHT22;4867;48.112;11.622;2023-05-20T10:40:37;22.80;99.90
9658;DHT22;4867;48.112;11.622;2023-05-20T10:43:09;23.00;99.90
9658;DHT22;4867;48.112;11.622;2023-05-20T10:45:51;23.00;99.90
9658;DHT22;4867;48.112;11.622;2023-05-20T10:48:28;23.10;99.90
9658;DHT22;4867;48.112;11.622;2023-05-20T10:50:58;23.00;99.90
9658;DHT22;4867;48.112;11.622;2023-05-20T10:53:26;23.00;99.90
9658;DHT22;4867;48.112;11.622;2023-05-20T10:56:00;23.10;99.90
9658;DHT22;4867;48.112;11.622;2023-05-20T10:58:36;23.30;99.90
9658;DHT22;4867;48.112;11.622;2023-05-20T11:01:03;23.50;99.90
9658;DHT22;4867;48.112;11.622;2023-05-20T11:03:32;23.60;99.90
9658;DHT22;4867;48.112;11.622;2023-05-20T11:06:01;23.70;99.90
9658;DHT22;4867;48.112;11.622;2023-05-20T11:08:29;23.80;99.90
9658;DHT22;4867;48.112;11.622;2023-05-20T11:10:59;23.60;99.90
9658;DHT22;4867;48.112;11.622;2023-05-20T11:13:27;23.40;99.90
9658;DHT22;4867;48.112;11.622;2023-05-20T11:15:54;23.40;99.90
9658;DHT22;4867;48.112;11.622;2023-05-20T11:18:21;23.50;99.90
9658;DHT22;4867;48.112;11.622;2023-05-20T11:20:49;23.50;99.90
9658;DHT22;4867;48.112;11.622;2023-05-20T11:23:17;23.40;99.90
9658;DHT22;4867;48.112;11.622;2023-05-20T11:25:44;23.30;99.90
9658;DHT22;4867;48.112;11.622;2023-05-20T11:28:12;23.20;99.90
9658;DHT22;4867;48.112;11.622;2023-05-20T11:30:42;23.30;99.90
9658;DHT22;4867;48.112;11.622;2023-05-20T11:33:13;23.50;99.90
9658;DHT22;4867;48.112;11.622;2023-05-20T11:35:45;23.50;99.90
9658;DHT22;4867;48.112;11.622;2023-05-20T11:38:13;23.60;99.90
9658;DHT22;4867;48.112;11.622;2023-05-20T11:40:45;23.70;99.90
9658;DHT22;4867;48.112;11.622;2023-05-20T11:43:18;23.70;99.90
9658;DHT22;4867;48.112;11.622;2023-05-20T11:45:54;23.90;99.90
9658;DHT22;4867;48.112;11.622;2023-05-20T11:48:23;24.10;99.90
9658;DHT22;4867;48.112;11.622;2023-05-20T11:50:52;24.20;99.90
9658;DHT22;4867;48.112;11.622;2023-05-20T11:53:22;24.10;99.90
9658;DHT22;4867;48.112;11.622;2023-05-20T11:55:57;24.10;99.90
9658;DHT22;4867;48.112;11.622;2023-05-20T11:58:26;24.10;99.90
9658;DHT22;4867;48.112;11.622;2023-05-20T12:00:55;24.10;99.90
9658;DHT22;4867;48.112;11.622;2023-05-20T12:03:39;24.10;99.90
9658;DHT22;4867;48.112;11.622;2023-05-20T12:06:10;24.10;99.90
9658;DHT22;4867;48.112;11.622;2023-05-20T12:08:38;24.10;99.90
9658;DHT22;4867;48.112;11.622;2023-05-20T12:11:05;24.20;99.90
9658;DHT22;4867;48.112;11.622;2023-05-20T12:13:33;24.40;99.90
9658;DHT22;4867;48.112;11.622;2023-05-20T12:16:01;24.50;99.90
9658;DHT22;4867;48.112;11.622;2023-05-20T12:18:31;24.40;99.90
9658;DHT22;4867;48.112;11.622;2023-05-20T12:20:59;24.40;99.90
9658;DHT22;4867;48.112;11.622;2023-05-20T12:23:27;24.40;99.90
9658;DHT22;4867;48.112;11.622;2023-05-20T12:25:56;24.50;99.90
9658;DHT22;4867;48.112;11.622;2023-05-20T12:28:23;24.50;99.90
9658;DHT22;4867;48.112;11.622;2023-05-20T12:30:51;24.60;99.90
9658;DHT22;4867;48.112;11.622;2023-05-20T12:33:18;24.90;99.90
9658;DHT22;4867;48.112;11.622;2023-05-20T12:35:46;25.20;99.90
9658;DHT22;4867;48.112;11.622;2023-05-20T12:38:14;25.30;99.90
9658;DHT22;4867;48.112;11.622;2023-05-20T12:40:41;25.20;99.20
9658;DHT22;4867;48.112;11.622;2023-05-20T12:43:08;25.20;99.60
9658;DHT22;4867;48.112;11.622;2023-05-20T12:45:36;25.30;99.50
9658;DHT22;4867;48.112;11.622;2023-05-20T12:48:03;25.50;99.40
9658;DHT22;4867;48.112;11.622;2023-05-20T12:50:32;25.60;99.40
9658;DHT22;4867;48.112;11.622;2023-05-20T12:52:59;25.50;99.40
9658;DHT22;4867;48.112;11.622;2023-05-20T12:55:27;25.50;99.80
9658;DHT22;4867;48.112;11.622;2023-05-20T12:57:54;25.40;98.80
9658;DHT22;4867;48.112;11.622;2023-05-20T13:00:22;25.30;99.00
9658;DHT22;4867;48.112;11.622;2023-05-20T13:02:49;25.30;99.40
9658;DHT22;4867;48.112;11.622;2023-05-20T13:05:19;25.30;99.90
9658;DHT22;4867;48.112;11.622;2023-05-20T13:07:47;25.30;99.90
9658;DHT22;4867;48.112;11.622;2023-05-20T13:10:15;25.30;99.90
9658;DHT22;4867;48.112;11.622;2023-05-20T13:12:43;25.30;99.90
9658;DHT22;4867;48.112;11.622;2023-05-20T13:15:12;25.20;99.90
9658;DHT22;4867;48.112;11.622;2023-05-20T13:17:41;25.20;99.90
9658;DHT22;4867;48.112;11.622;2023-05-20T13:20:11;25.10;99.90
9658;DHT22;4867;48.112;11.622;2023-05-20T13:22:39;25.20;99.90
9658;DHT22;4867;48.112;11.622;2023-05-20T13:25:06;25.30;99.90
9658;DHT22;4867;48.112;11.622;2023-05-20T13:27:35;25.30;99.90
9658;DHT22;4867;48.112;11.622;2023-05-20T13:30:02;25.20;99.90
9658;DHT22;4867;48.112;11.622;2023-05-20T13:32:30;25.20;99.90
9658;DHT22;4867;48.112;11.622;2023-05-20T13:34:57;25.20;99.90
9658;DHT22;4867;48.112;11.622;2023-05-20T13:37:25;25.10;99.90
9658;DHT22;4867;48.112;11.622;2023-05-20T13:39:52;24.80;99.90
9658;DHT22;4867;48.112;11.622;2023-05-20T13:42:20;24.80;99.90
9658;DHT22;4867;48.112;11.622;2023-05-20T13:44:47;24.70;99.90
9658;DHT22;4867;48.112;11.622;2023-05-20T13:47:16;24.70;99.90
9658;DHT22;4867;48.112;11.622;2023-05-20T13:49:43;24.70;99.90
9658;DHT22;4867;48.112;11.622;2023-05-20T13:52:10;24.80;99.90
9658;DHT22;4867;48.112;11.622;2023-05-20T13:54:38;24.80;99.90
9658;DHT22;4867;48.112;11.622;2023-05-20T13:57:06;24.70;99.90
9658;DHT22;4867;48.112;11.622;2023-05-20T13:59:34;24.70;99.90
9658;DHT22;4867;48.112;11.622;2023-05-20T14:02:01;24.60;99.90
9658;DHT22;4867;48.112;11.622;2023-05-20T14:04:29;24.60;99.90
9658;DHT22;4867;48.112;11.622;2023-05-20T14:06:57;24.60;99.90
9658;DHT22;4867;48.112;11.622;2023-05-20T14:09:26;24.60;99.60
9658;DHT22;4867;48.112;11.622;2023-05-20T14:11:53;24.60;99.90
9658;DHT22;4867;48.112;11.622;2023-05-20T14:14:20;24.60;98.70
9658;DHT22;4867;48.112;11.622;2023-05-20T14:16:48;24.50;99.30
9658;DHT22;4867;48.112;11.622;2023-05-20T14:19:15;24.40;99.90
9658;DHT22;4867;48.112;11.622;2023-05-20T14:21:42;24.30;99.90
9658;DHT22;4867;48.112;11.622;2023-05-20T14:24:09;24.20;99.90
9658;DHT22;4867;48.112;11.622;2023-05-20T14:26:37;24.10;99.90
9658;DHT22;4867;48.112;11.622;2023-05-20T14:29:04;24.00;99.90
9658;DHT22;4867;48.112;11.622;2023-05-20T14:31:31;23.90;99.90
9658;DHT22;4867;48.112;11.622;2023-05-20T14:33:59;23.80;99.90
9658;DHT22;4867;48.112;11.622;2023-05-20T14:36:26;23.90;99.90
9658;DHT22;4867;48.112;11.622;2023-05-20T14:38:53;23.80;99.90
9658;DHT22;4867;48.112;11.622;2023-05-20T14:41:21;23.90;99.90
9658;DHT22;4867;48.112;11.622;2023-05-20T14:43:48;23.80;99.90
9658;DHT22;4867;48.112;11.622;2023-05-20T14:46:16;23.80;99.90
9658;DHT22;4867;48.112;11.622;2023-05-20T14:48:43;23.70;99.90
9658;DHT22;4867;48.112;11.622;2023-05-20T14:51:11;23.80;99.90
9658;DHT22;4867;48.112;11.622;2023-05-20T14:53:38;23.90;99.90
9658;DHT22;4867;48.112;11.622;2023-05-20T14:56:05;23.90;99.90
9658;DHT22;4867;48.112;11.622;2023-05-20T14:58:33;23.80;99.90
9658;DHT22;4867;48.112;11.622;2023-05-20T15:01:01;23.80;99.90
9658;DHT22;4867;48.112;11.622;2023-05-20T15:03:28;23.80;99.90
9658;DHT22;4867;48.112;11.622;2023-05-20T15:05:56;23.80;99.90
9658;DHT22;4867;48.112;11.622;2023-05-20T15:08:23;23.80;99.90
9658;DHT22;4867;48.112;11.622;2023-05-20T15:10:50;23.80;99.90
9658;DHT22;4867;48.112;11.622;2023-05-20T15:13:18;23.70;99.90
9658;DHT22;4867;48.112;11.622;2023-05-20T15:15:46;23.70;99.90
9658;DHT22;4867;48.112;11.622;2023-05-20T15:18:13;23.70;99.90
9658;DHT22;4867;48.112;11.622;2023-05-20T15:20:40;23.60;99.90
9658;DHT22;4867;48.112;11.622;2023-05-20T15:23:08;23.70;99.90
9658;DHT22;4867;48.112;11.622;2023-05-20T15:25:35;23.80;99.90
9658;DHT22;4867;48.112;11.622;2023-05-20T15:28:02;23.80;99.90
9658;DHT22;4867;48.112;11.622;2023-05-20T15:30:30;23.70;99.90
9658;DHT22;4867;48.112;11.622;2023-05-20T15:32:57;23.70;99.90
9658;DHT22;4867;48.112;11.622;2023-05-20T15:35:24;23.60;99.90
9658;DHT22;4867;48.112;11.622;2023-05-20T15:37:52;23.40;99.90
9658;DHT22;4867;48.112;11.622;2023-05-20T15:40:19;23.30;99.90
9658;DHT22;4867;48.112;11.622;2023-05-20T15:42:47;23.30;99.90
9658;DHT22;4867;48.112;11.622;2023-05-20T15:45:15;23.30;99.90
9658;DHT22;4867;48.112;11.622;2023-05-20T15:47:42;23.40;99.90
9658;DHT22;4867;48.112;11.622;2023-05-20T15:50:10;23.60;99.90
9658;DHT22;4867;48.112;11.622;2023-05-20T15:52:38;23.70;99.90
9658;DHT22;4867;48.112;11.622;2023-05-20T15:55:06;23.80;99.90
9658;DHT22;4867;48.112;11.622;2023-05-20T15:57:33;24.00;99.90
9658;DHT22;4867;48.112;11.622;2023-05-20T16:00:00;24.10;99.90